Friday, October 24, 2014
10:23 UTC
  |  Log In   |  Register Free
Airport Search:

Shenandoah Valley Regional Airport
(KSHD)

Shenandoah Valley Regional Airport Diagram
No Airport Diagram Available

FAA data valid effective September 18, 2014 - November 13, 2014 (unless otherwise noted).

 
 
 
 
 
 
 
 
 
 
 
 
 
 

Current Aviation Weather for Shenandoah Valley Regional Airport (KSHD)

The most recent METAR observation for KSHD was updated at: 1014
METAR Summary (Translated METAR)
KSHD
240955Z AUTO 00000KT 10SM CLR 03/01 A3004 RMK AO2 T00270011
KVBW
240955Z AUTO 00000KT 10SM CLR 03/03 A3002 RMK AO2 T00340025
(6.9 nm NW from KSHD)
KW13
240955Z AUTO 24006KT 10SM CLR 07/04 A3002 RMK AO1 T00700037
(11.4 nm SW from KSHD)
TAF
No TAF information found within 50 nm of KSHD
  Airport Weather Conditions for KSHD

 Current Weather at SHD
37° F
Fair
North winds at 0.0 mph
SHD NOAA Radar

Pressure: 30.04 in
Humidity: 89%
Wind: Calm
Dew Point: 34.0°F
Visibility: 10.00 mi


Airport Weather Forecast for KSHD

Translated METAR and TAF for KSHD
Translated METAR for KSHD (1018 UTC 24 October 2014)
found at http://aviationweather.gov/adds/metars/
 
METAR text: KSHD 240955Z AUTO 00000KT 10SM CLR 03/01 A3004 RMK AO2 T00270011
Conditions at: KSHD (STAUNTON/SHENAND, VA, US) observed 0955 UTC 24 October 2014
Temperature: 2.7°C (37°F)
Dewpoint: 1.1°C (34°F) [RH = 89%]
Pressure (altimeter): 30.04 inches Hg (1017.4 mb)
Winds: calm
Visibility: 10 or more miles (16+ km)
Ceiling: at least 12,000 feet AGL
Clouds: sky clear below 12,000 feet AGL
Weather: automated observation with no human augmentation;
there may or may not be significant weather present at this time
Translated TAF for KSHD

There is no translated TAF available for this airport

Find All Airport Services Find A Hotel Find A Rental Car Find A Golf Course Find A Restaurant $100 Hamburger



FBO's on the Field
FBO Company Facility Photos Services Transportation Aviation Fuel Prices: Prices include tax
Catering Weather Repair Courtesy Rental Type 100LL JetA JetA+ MOGAS 8087
 
Avnet Shenandoah Valley

This FBO has not yet been rated
FS:Avfuel
Last Updated: Sep-30
Login to update fuel prices
SS:
Contact Avnet Shenandoah ValleyMore FBO Information
 
Add another FBO Facility Photos Catering Weather Repair Courtesy Rental Type 100LL JetA JetA+ MOGAS 8087
Services Transportation Aviation Fuel Prices: Prices include tax


model-print
model-print
model-print
model-print